Time;durP1;ratioP1;P1;durP2;ratioP2;P2;SDS_P1;SDS_P2;PMS_P1;PMS_P2;Temp;Humidity;BMP_temperature;BMP_pressure;BME280_temperature;BME280_humidity;BME280_pressure;Samples;Min_cycle;Max_cycle;Signal;HPM_P1;HPM_P2
2023/07/07 00:02:15;;;;;;;3.87;3.57;;;19.70;26.20;;;;;;10406808;28;20230;-74
2023/07/07 00:07:19;;;;;;;4.00;3.70;;;19.70;26.80;;;;;;10407012;28;20225;-75
2023/07/07 00:12:22;;;;;;;3.83;3.53;;;19.70;26.50;;;;;;10406941;28;20237;-74
2023/07/07 00:17:27;;;;;;;3.57;3.27;;;19.80;26.50;;;;;;10406537;28;20724;-74
2023/07/07 00:22:31;;;;;;;4.97;4.00;;;19.80;26.70;;;;;;10406758;28;20600;-74
2023/07/07 00:27:34;;;;;;;3.73;3.43;;;19.80;26.50;;;;;;10406725;28;20312;-74
2023/07/07 00:32:39;;;;;;;4.53;4.13;;;19.90;27.00;;;;;;10406215;28;20740;-74
2023/07/07 00:37:44;;;;;;;4.10;3.70;;;19.90;27.00;;;;;;10406142;28;20542;-74
2023/07/07 00:42:47;;;;;;;4.30;3.80;;;19.90;27.00;;;;;;10406062;28;20232;-74
2023/07/07 00:47:57;;;;;;;4.30;3.90;;;19.80;26.60;;;;;;10405172;28;20239;-74
2023/07/07 00:53:01;;;;;;;4.20;3.80;;;19.70;27.30;;;;;;10405717;28;20221;-74
2023/07/07 00:58:08;;;;;;;4.67;4.03;;;19.70;26.90;;;;;;10405141;28;20251;-74
2023/07/07 01:03:19;;;;;;;4.37;3.80;;;19.60;28.10;;;;;;10405425;28;20244;-74
2023/07/07 01:08:23;;;;;;;4.17;3.80;;;19.70;27.60;;;;;;10405248;28;20257;-74
2023/07/07 01:13:27;;;;;;;4.10;3.50;;;19.60;26.90;;;;;;10405017;28;20776;-74
2023/07/07 01:18:42;;;;;;;3.67;3.37;;;19.60;27.00;;;;;;10405551;28;20233;-74
2023/07/07 01:24:18;;;;;;;3.63;3.23;;;19.60;27.60;;;;;;10404970;28;20239;-74
2023/07/07 01:29:57;;;;;;;4.53;3.83;;;19.60;27.50;;;;;;10405504;28;20693;-74
2023/07/07 01:35:09;;;;;;;4.20;3.70;;;19.60;27.40;;;;;;10400019;28;20222;-75
2023/07/07 01:40:13;;;;;;;3.63;3.33;;;19.50;27.60;;;;;;10405329;28;20300;-74
2023/07/07 01:45:24;;;;;;;5.13;4.43;;;19.40;26.90;;;;;;10404794;28;20613;-75
2023/07/07 01:50:33;;;;;;;4.43;4.03;;;19.40;27.70;;;;;;10403086;28;20237;-74
2023/07/07 01:55:41;;;;;;;5.87;4.03;;;19.30;27.60;;;;;;10404471;28;20280;-75
2023/07/07 02:00:45;;;;;;;7.07;4.10;;;19.30;27.50;;;;;;10407211;28;20244;-74
2023/07/07 02:05:50;;;;;;;4.50;3.97;;;19.20;27.20;;;;;;10412153;28;20706;-74
2023/07/07 02:10:53;;;;;;;4.47;4.07;;;19.20;27.70;;;;;;10411935;28;20778;-74
2023/07/07 02:15:56;;;;;;;3.83;3.50;;;19.10;27.40;;;;;;10411642;28;20229;-74
2023/07/07 02:21:01;;;;;;;4.00;3.60;;;19.10;27.40;;;;;;10411513;28;20234;-74
2023/07/07 02:26:04;;;;;;;7.33;4.20;;;19.00;27.70;;;;;;10411254;28;20320;-74
2023/07/07 02:31:07;;;;;;;4.83;4.30;;;18.90;27.60;;;;;;10410399;28;20743;-74
2023/07/07 02:36:12;;;;;;;4.93;4.40;;;18.80;27.50;;;;;;10410485;28;20218;-74
2023/07/07 02:41:15;;;;;;;4.03;3.73;;;18.80;28.00;;;;;;10410629;28;20229;-74
2023/07/07 02:46:18;;;;;;;3.90;3.60;;;18.70;27.50;;;;;;10410614;28;20234;-74
2023/07/07 02:51:23;;;;;;;4.10;3.70;;;18.70;27.60;;;;;;10410424;28;20233;-74
2023/07/07 02:56:26;;;;;;;4.00;3.60;;;18.60;28.10;;;;;;10409896;28;20233;-74
2023/07/07 03:01:32;;;;;;;4.13;3.73;;;18.50;27.80;;;;;;10409717;28;20230;-74
2023/07/07 03:06:38;;;;;;;4.13;3.73;;;18.50;27.90;;;;;;10409783;28;20229;-74
2023/07/07 03:11:41;;;;;;;4.37;3.97;;;18.40;28.30;;;;;;10409269;28;20225;-74
2023/07/07 03:16:46;;;;;;;4.60;4.20;;;18.40;28.00;;;;;;10408959;28;20236;-74
2023/07/07 03:21:54;;;;;;;4.90;4.40;;;18.30;28.00;;;;;;10408724;28;20238;-74
2023/07/07 03:26:57;;;;;;;4.37;3.97;;;18.20;28.90;;;;;;10408639;28;20813;-74
2023/07/07 03:32:00;;;;;;;4.00;3.70;;;18.00;28.10;;;;;;10408609;28;20228;-74
2023/07/07 03:37:06;;;;;;;4.13;3.80;;;17.90;28.40;;;;;;10408117;28;20232;-74
2023/07/07 03:42:09;;;;;;;4.87;3.93;;;17.70;28.90;;;;;;10408125;28;20234;-74
2023/07/07 03:47:13;;;;;;;5.10;4.17;;;17.50;28.60;;;;;;10406715;28;20332;-74
2023/07/07 03:52:17;;;;;;;4.10;3.70;;;17.40;28.80;;;;;;10406930;28;20293;-74
2023/07/07 03:57:21;;;;;;;4.07;3.67;;;17.30;29.20;;;;;;10406420;28;20261;-75
2023/07/07 04:02:24;;;;;;;7.97;4.63;;;17.20;29.20;;;;;;10406445;28;20236;-74
2023/07/07 04:07:29;;;;;;;4.97;4.57;;;17.20;29.40;;;;;;10406818;28;20309;-74
2023/07/07 04:12:32;;;;;;;4.20;3.80;;;17.20;29.80;;;;;;10406896;28;20580;-74
2023/07/07 04:17:35;;;;;;;5.00;4.07;;;17.20;29.60;;;;;;10406396;28;20725;-74
2023/07/07 04:22:40;;;;;;;5.10;4.00;;;17.10;29.70;;;;;;10389749;28;20230;-74
2023/07/07 04:27:44;;;;;;;6.33;4.50;;;17.10;30.30;;;;;;10405248;28;20233;-74
2023/07/07 04:32:47;;;;;;;4.87;4.20;;;17.20;30.30;;;;;;10404658;28;20735;-74
2023/07/07 04:37:52;;;;;;;4.60;4.20;;;17.20;30.10;;;;;;10387631;28;20319;-73
2023/07/07 04:42:55;;;;;;;5.07;4.60;;;17.30;30.80;;;;;;10369816;28;20420;-74
2023/07/07 04:47:58;;;;;;;4.77;4.30;;;17.30;30.50;;;;;;10375066;28;20490;-74
2023/07/07 04:53:03;;;;;;;5.03;4.53;;;17.40;30.60;;;;;;10378537;28;20228;-74
2023/07/07 04:58:06;;;;;;;8.33;4.73;;;17.40;31.30;;;;;;10381737;28;20233;-74
2023/07/07 05:03:10;;;;;;;5.27;4.50;;;17.50;30.90;;;;;;10384592;28;20226;-75
2023/07/07 05:08:14;;;;;;;5.90;4.67;;;17.50;31.00;;;;;;10384695;28;20226;-74
2023/07/07 05:13:17;;;;;;;5.10;4.60;;;17.60;31.80;;;;;;10389109;28;20312;-75
2023/07/07 05:18:21;;;;;;;4.80;4.30;;;17.70;31.30;;;;;;10389244;28;20226;-73
2023/07/07 05:23:26;;;;;;;5.43;4.97;;;17.80;31.60;;;;;;10403342;28;20229;-73
2023/07/07 05:28:29;;;;;;;5.00;4.50;;;17.90;32.70;;;;;;10402135;28;20268;-75
2023/07/07 05:33:32;;;;;;;5.67;4.83;;;18.00;31.90;;;;;;10401914;28;20228;-74
2023/07/07 05:38:41;;;;;;;7.20;4.80;;;18.20;31.90;;;;;;10410474;28;20304;-74
2023/07/07 05:43:44;;;;;;;6.57;5.00;;;18.30;33.10;;;;;;10410696;28;20230;-73
2023/07/07 05:48:48;;;;;;;6.37;5.07;;;18.50;32.20;;;;;;10399955;28;20736;-73
2023/07/07 05:53:52;;;;;;;6.60;4.23;;;18.70;32.30;;;;;;10410891;28;20232;-73
2023/07/07 05:58:57;;;;;;;5.10;4.70;;;18.90;32.80;;;;;;10407161;28;20233;-74
2023/07/07 06:04:00;;;;;;;5.80;5.20;;;19.20;32.80;;;;;;10399851;28;20992;-74
2023/07/07 06:09:06;;;;;;;5.50;4.77;;;19.30;32.60;;;;;;10406012;28;20222;-75
2023/07/07 06:14:09;;;;;;;7.23;5.50;;;19.60;33.30;;;;;;10402821;28;20221;-74
2023/07/07 06:19:13;;;;;;;6.07;5.47;;;19.80;33.00;;;;;;10408755;28;20727;-74
2023/07/07 06:24:17;;;;;;;7.10;4.93;;;20.00;33.10;;;;;;10406315;28;20226;-74
2023/07/07 06:29:20;;;;;;;5.50;5.00;;;20.30;33.80;;;;;;10407662;28;20240;-74
2023/07/07 06:34:24;;;;;;;6.20;5.60;;;20.50;33.90;;;;;;10393031;28;20318;-73
2023/07/07 06:39:28;;;;;;;5.87;5.17;;;20.80;33.10;;;;;;10368975;28;20309;-74
2023/07/07 06:44:32;;;;;;;6.07;5.47;;;21.00;33.60;;;;;;10399806;28;20229;-73
2023/07/07 06:49:35;;;;;;;6.00;5.40;;;21.30;33.40;;;;;;10409187;28;20217;-74
2023/07/07 06:54:40;;;;;;;5.60;5.00;;;21.50;33.30;;;;;;10408125;28;20236;-73
2023/07/07 06:59:43;;;;;;;5.67;4.80;;;21.80;33.40;;;;;;10408939;28;20627;-73
2023/07/07 07:04:46;;;;;;;6.50;5.33;;;22.00;33.10;;;;;;10411579;28;20233;-73
2023/07/07 07:09:51;;;;;;;5.30;4.80;;;22.30;32.90;;;;;;10413668;28;20942;-74
2023/07/07 07:14:54;;;;;;;5.00;4.50;;;22.50;33.40;;;;;;10409270;28;20256;-74
2023/07/07 07:19:57;;;;;;;5.43;4.63;;;22.80;32.70;;;;;;10409763;28;20239;-73
2023/07/07 07:25:02;;;;;;;5.83;4.80;;;23.10;32.60;;;;;;10411382;28;20253;-74
2023/07/07 07:30:07;;;;;;;4.90;4.30;;;23.30;32.50;;;;;;10410286;28;20265;-74
2023/07/07 07:35:12;;;;;;;4.97;4.47;;;23.60;32.20;;;;;;10408486;28;20303;-75
2023/07/07 07:40:17;;;;;;;4.70;4.30;;;23.90;31.80;;;;;;10410874;28;20312;-74
2023/07/07 07:45:23;;;;;;;4.87;4.37;;;24.20;31.50;;;;;;10407617;28;20265;-74
2023/07/07 07:50:28;;;;;;;4.50;4.10;;;24.40;31.10;;;;;;10413999;28;20236;-73
2023/07/07 07:55:33;;;;;;;4.30;4.00;;;24.70;30.90;;;;;;10411252;28;20992;-74
2023/07/07 08:00:36;;;;;;;4.30;3.90;;;24.90;30.50;;;;;;10406963;28;20324;-73
2023/07/07 08:05:40;;;;;;;4.37;3.93;;;25.20;30.20;;;;;;10409637;28;20229;-73
2023/07/07 08:10:44;;;;;;;4.50;4.10;;;25.60;29.80;;;;;;10411801;28;20312;-73
2023/07/07 08:15:57;;;;;;;4.03;3.73;;;25.90;29.10;;;;;;10414272;28;20256;-73
2023/07/07 08:21:00;;;;;;;4.80;3.83;;;26.20;29.30;;;;;;10410944;28;20706;-74
2023/07/07 08:26:05;;;;;;;4.30;3.90;;;26.40;28.80;;;;;;10414134;28;20304;-75
2023/07/07 08:31:11;;;;;;;4.37;3.97;;;26.70;28.00;;;;;;10415018;28;20352;-74
2023/07/07 08:36:15;;;;;;;4.70;3.70;;;26.90;27.80;;;;;;10402577;28;20801;-74
2023/07/07 08:41:20;;;;;;;3.97;3.67;;;27.20;27.40;;;;;;10403044;28;20240;-74
2023/07/07 08:46:33;;;;;;;3.90;3.60;;;27.40;25.90;;;;;;10403399;28;20712;-74
2023/07/07 08:51:42;;;;;;;4.00;3.60;;;27.70;25.50;;;;;;10402902;28;20725;-76
2023/07/07 08:56:54;;;;;;;3.80;3.50;;;27.90;24.90;;;;;;10390357;28;20229;-76
2023/07/07 09:02:05;;;;;;;3.70;3.40;;;28.20;24.10;;;;;;10394684;28;20709;-76
2023/07/07 09:07:25;;;;;;;4.10;3.70;;;28.40;23.40;;;;;;10391900;28;20244;-77
2023/07/07 09:12:38;;;;;;;3.93;3.50;;;28.60;22.10;;;;;;10396987;28;21044;-77
2023/07/07 09:17:46;;;;;;;4.47;4.07;;;28.80;21.60;;;;;;10399740;28;20229;-76
2023/07/07 09:22:56;;;;;;;4.00;3.70;;;29.00;22.40;;;;;;10395951;28;20257;-76
2023/07/07 09:28:03;;;;;;;3.63;3.33;;;29.20;21.20;;;;;;10400423;28;20660;-76
2023/07/07 09:33:13;;;;;;;4.07;3.77;;;29.30;21.30;;;;;;10403081;28;20319;-74
2023/07/07 09:38:25;;;;;;;3.80;3.50;;;29.40;20.80;;;;;;10409644;28;20732;-74
2023/07/07 09:43:38;;;;;;;3.97;3.40;;;29.50;20.30;;;;;;10406236;28;20241;-74
2023/07/07 09:49:02;;;;;;;3.83;3.50;;;29.70;19.80;;;;;;10397844;28;20283;-75
2023/07/07 09:54:10;;;;;;;3.40;3.10;;;29.90;19.40;;;;;;10398173;28;20332;-75
2023/07/07 09:59:20;;;;;;;3.63;3.33;;;30.00;19.20;;;;;;10397770;28;20283;-75
2023/07/07 10:04:26;;;;;;;3.60;3.30;;;30.10;18.70;;;;;;10398528;28;20229;-75
2023/07/07 10:09:31;;;;;;;3.43;3.13;;;30.30;19.50;;;;;;10399377;28;20324;-74
2023/07/07 10:14:37;;;;;;;3.43;3.13;;;30.30;19.20;;;;;;10406422;28;20237;-74
2023/07/07 10:19:42;;;;;;;3.63;3.40;;;30.50;18.40;;;;;;10401431;28;20686;-75
2023/07/07 10:24:45;;;;;;;4.37;3.97;;;30.60;18.30;;;;;;10400363;28;20233;-75
2023/07/07 10:29:50;;;;;;;3.60;3.30;;;30.80;18.50;;;;;;10396400;28;20706;-75
2023/07/07 10:34:57;;;;;;;3.83;3.10;;;30.80;17.10;;;;;;10400779;28;20236;-76
2023/07/07 10:40:02;;;;;;;3.80;3.50;;;30.90;17.30;;;;;;10401275;28;20797;-77
2023/07/07 10:45:08;;;;;;;3.33;3.10;;;30.90;17.20;;;;;;10400106;28;20218;-77
2023/07/07 10:50:15;;;;;;;3.33;3.13;;;31.10;16.50;;;;;;10396149;28;20226;-77
2023/07/07 10:55:25;;;;;;;3.23;3.03;;;31.20;16.00;;;;;;10400375;28;20249;-76
2023/07/07 11:00:42;;;;;;;3.60;3.30;;;31.30;15.60;;;;;;10396933;28;20230;-76
2023/07/07 11:05:48;;;;;;;3.77;3.47;;;31.30;15.70;;;;;;10404511;28;20753;-76
2023/07/07 11:11:18;;;;;;;3.60;3.30;;;31.30;15.60;;;;;;10399111;28;20229;-77
2023/07/07 11:16:30;;;;;;;3.67;3.30;;;31.30;15.40;;;;;;10398708;28;20240;-78
2023/07/07 11:21:42;;;;;;;3.90;3.00;;;31.30;15.10;;;;;;10399172;28;20222;-77
2023/07/07 11:27:18;;;;;;;3.53;3.23;;;31.40;14.70;;;;;;10403677;28;20287;-76
2023/07/07 11:32:33;;;;;;;3.30;3.10;;;31.40;15.80;;;;;;10393499;28;20222;-77
2023/07/07 11:37:54;;;;;;;3.40;3.10;;;31.50;14.50;;;;;;10399938;28;20709;-75
2023/07/07 11:43:15;;;;;;;3.60;3.27;;;31.60;14.90;;;;;;10390800;28;20230;-76
2023/07/07 11:48:31;;;;;;;4.20;3.80;;;31.60;13.80;;;;;;10406559;28;20324;-76
2023/07/07 11:54:07;;;;;;;3.60;3.30;;;31.60;13.70;;;;;;10397846;28;20336;-77
2023/07/07 11:59:27;;;;;;;4.10;3.80;;;31.60;13.20;;;;;;10394942;28;20257;-77
2023/07/07 12:04:39;;;;;;;4.00;3.70;;;31.60;13.00;;;;;;10409467;28;20237;-77
2023/07/07 12:09:48;;;;;;;4.13;3.73;;;31.60;13.00;;;;;;10403599;28;20225;-76
2023/07/07 12:14:59;;;;;;;4.10;3.80;;;31.70;13.40;;;;;;10400283;28;20613;-76
2023/07/07 12:20:14;;;;;;;3.60;3.40;;;31.80;13.50;;;;;;10392936;28;20228;-76
2023/07/07 12:25:24;;;;;;;3.97;3.67;;;31.90;12.80;;;;;;10403397;28;20236;-75
2023/07/07 12:30:30;;;;;;;6.87;3.83;;;31.90;12.50;;;;;;10397331;28;20225;-75
2023/07/07 12:35:53;;;;;;;3.97;3.50;;;32.00;13.20;;;;;;10401447;28;20318;-78
2023/07/07 12:40:59;;;;;;;4.00;3.70;;;32.10;13.00;;;;;;10405532;28;20312;-76
2023/07/07 12:46:04;;;;;;;4.10;3.80;;;32.20;12.70;;;;;;10395402;28;20222;-77
2023/07/07 12:51:09;;;;;;;4.40;3.93;;;32.10;12.20;;;;;;10389774;28;20280;-75
2023/07/07 12:56:19;;;;;;;4.10;3.80;;;32.10;11.90;;;;;;10397903;28;20320;-77
2023/07/07 13:01:35;;;;;;;4.80;4.40;;;32.10;11.60;;;;;;10399733;28;21080;-80
2023/07/07 13:06:42;;;;;;;4.13;3.80;;;32.00;11.60;;;;;;10404817;28;20228;-81
2023/07/07 13:11:47;;;;;;;4.73;4.33;;;32.10;11.60;;;;;;10395522;28;20229;-78
2023/07/07 13:16:50;;;;;;;4.30;3.90;;;32.10;11.90;;;;;;10395823;28;20285;-75
2023/07/07 13:21:59;;;;;;;9.40;4.30;;;32.20;12.40;;;;;;10389344;28;20241;-75
2023/07/07 13:27:02;;;;;;;4.60;4.20;;;32.20;11.70;;;;;;10388465;28;20313;-75
2023/07/07 13:32:06;;;;;;;5.07;4.60;;;32.30;11.70;;;;;;10394215;28;20256;-76
2023/07/07 13:37:12;;;;;;;4.90;4.50;;;32.40;11.80;;;;;;10393449;28;20229;-77
2023/07/07 13:42:26;;;;;;;5.17;4.77;;;32.40;11.00;;;;;;10397284;28;20225;-78
2023/07/07 13:47:32;;;;;;;4.50;4.10;;;32.40;10.60;;;;;;10401544;28;20239;-78
2023/07/07 13:52:43;;;;;;;5.13;4.73;;;32.40;11.70;;;;;;10400170;28;20226;-78
2023/07/07 13:57:47;;;;;;;5.77;5.27;;;32.40;10.00;;;;;;10401971;28;20260;-77
2023/07/07 14:02:50;;;;;;;6.00;5.50;;;32.40;10.80;;;;;;10409937;28;20230;-78
2023/07/07 14:07:55;;;;;;;5.30;4.80;;;32.40;10.60;;;;;;10410292;28;20232;-80
2023/07/07 14:12:58;;;;;;;5.40;5.00;;;32.40;10.10;;;;;;10404105;28;20244;-78
2023/07/07 14:18:04;;;;;;;5.90;5.40;;;32.40;10.60;;;;;;10410118;28;20657;-79
2023/07/07 14:23:15;;;;;;;5.67;5.17;;;32.40;10.40;;;;;;10408664;28;20230;-76
2023/07/07 14:28:20;;;;;;;6.10;5.60;;;32.40;9.60;;;;;;10410587;28;20241;-78
2023/07/07 14:33:26;;;;;;;5.57;5.17;;;32.40;10.50;;;;;;10405059;28;20227;-79
2023/07/07 14:38:33;;;;;;;6.93;4.90;;;32.40;10.10;;;;;;10409266;28;20642;-80
2023/07/07 14:43:41;;;;;;;5.60;5.10;;;32.30;10.10;;;;;;10411042;28;20242;-80
2023/07/07 14:48:49;;;;;;;5.47;4.90;;;32.30;9.90;;;;;;10400574;28;20811;-79
2023/07/07 14:53:59;;;;;;;5.97;5.37;;;32.40;9.60;;;;;;10407067;28;20236;-76
2023/07/07 14:59:21;;;;;;;6.27;5.70;;;32.40;9.30;;;;;;10407003;28;20231;-77
2023/07/07 15:04:29;;;;;;;5.93;5.43;;;32.50;9.60;;;;;;10409329;28;20251;-79
2023/07/07 15:09:36;;;;;;;5.67;5.20;;;32.50;9.90;;;;;;10400303;28;20225;-78
2023/07/07 15:14:40;;;;;;;6.17;5.67;;;32.50;9.30;;;;;;10403224;28;20237;-78
2023/07/07 15:19:43;;;;;;;5.80;5.30;;;32.40;9.50;;;;;;10410234;28;20252;-78
2023/07/07 15:24:50;;;;;;;5.80;5.13;;;32.50;9.60;;;;;;10409134;28;20260;-78
2023/07/07 15:29:53;;;;;;;5.93;5.27;;;32.40;9.40;;;;;;10409858;28;20603;-79
2023/07/07 15:34:57;;;;;;;5.97;5.37;;;32.50;9.40;;;;;;10416573;28;20964;-79
2023/07/07 15:40:01;;;;;;;6.27;5.67;;;32.50;9.20;;;;;;10394134;28;20268;-77
2023/07/07 15:45:05;;;;;;;6.07;5.57;;;32.40;8.90;;;;;;10391718;28;20230;-77
2023/07/07 15:50:12;;;;;;;6.10;5.60;;;32.40;9.20;;;;;;10394179;28;20229;-77
2023/07/07 15:55:17;;;;;;;5.83;5.33;;;32.50;8.80;;;;;;10391130;28;20235;-77
2023/07/07 16:00:25;;;;;;;5.73;5.17;;;32.50;8.60;;;;;;10395234;28;20797;-77
2023/07/07 16:05:31;;;;;;;5.60;5.20;;;32.50;8.20;;;;;;10393969;28;20256;-77
2023/07/07 16:10:36;;;;;;;5.93;5.33;;;32.50;8.40;;;;;;10395834;28;20724;-77
2023/07/07 16:15:39;;;;;;;5.83;5.33;;;32.50;8.50;;;;;;10400367;28;20321;-77
2023/07/07 16:20:45;;;;;;;5.77;5.00;;;32.50;8.70;;;;;;10400832;28;20232;-77
2023/07/07 16:25:49;;;;;;;5.60;5.17;;;32.50;8.60;;;;;;10399795;28;20698;-77
2023/07/07 16:30:53;;;;;;;6.10;5.57;;;32.50;8.40;;;;;;10399698;28;20226;-77
2023/07/07 16:35:56;;;;;;;5.33;4.83;;;32.70;8.60;;;;;;10400077;28;20241;-77
2023/07/07 16:41:01;;;;;;;5.90;5.40;;;32.80;8.80;;;;;;10400443;28;20231;-77
2023/07/07 16:46:09;;;;;;;5.40;5.00;;;32.80;8.10;;;;;;10398060;28;20234;-77
2023/07/07 16:51:14;;;;;;;5.90;5.40;;;32.80;7.70;;;;;;10398024;28;20231;-74
2023/07/07 16:56:22;;;;;;;5.70;5.20;;;32.90;8.00;;;;;;10395453;28;20239;-74
2023/07/07 17:01:29;;;;;;;6.03;5.53;;;32.90;7.30;;;;;;10395439;28;20309;-74
2023/07/07 17:06:34;;;;;;;5.50;5.07;;;32.90;7.80;;;;;;10394730;28;20332;-75
2023/07/07 17:11:39;;;;;;;5.60;5.13;;;32.80;8.00;;;;;;10397642;28;20321;-75
2023/07/07 17:16:42;;;;;;;5.50;5.03;;;32.80;7.90;;;;;;10393811;28;20239;-75
2023/07/07 17:21:45;;;;;;;5.97;5.47;;;32.90;8.10;;;;;;10396237;28;20679;-74
2023/07/07 17:26:50;;;;;;;5.87;5.37;;;32.90;8.00;;;;;;10394354;28;20714;-75
2023/07/07 17:31:54;;;;;;;6.27;5.20;;;32.90;7.40;;;;;;10399341;28;20952;-75
2023/07/07 17:36:58;;;;;;;5.47;4.97;;;32.90;8.00;;;;;;10397401;28;20241;-74
2023/07/07 17:42:02;;;;;;;5.53;5.03;;;32.90;8.00;;;;;;10403894;28;20225;-75
2023/07/07 17:47:08;;;;;;;5.80;5.30;;;32.80;7.80;;;;;;10403559;28;20318;-75
2023/07/07 17:52:12;;;;;;;6.73;5.53;;;32.80;8.00;;;;;;10402843;28;20709;-75
2023/07/07 17:57:16;;;;;;;5.73;5.17;;;32.80;8.30;;;;;;10401631;28;20710;-74
2023/07/07 18:02:19;;;;;;;5.83;5.13;;;32.80;8.20;;;;;;10403206;28;20229;-75
2023/07/07 18:07:22;;;;;;;5.97;5.47;;;32.80;8.30;;;;;;10401650;28;21084;-75
2023/07/07 18:12:27;;;;;;;5.77;5.27;;;32.70;8.40;;;;;;10403415;28;20235;-77
2023/07/07 18:17:31;;;;;;;5.80;5.30;;;32.70;8.20;;;;;;10400945;28;20597;-77
2023/07/07 18:22:55;;;;;;;5.80;5.30;;;32.70;8.20;;;;;;10408012;28;20374;-80
2023/07/07 18:27:59;;;;;;;5.37;4.87;;;32.60;8.60;;;;;;10407328;28;20226;-78
2023/07/07 18:33:04;;;;;;;5.70;4.90;;;32.50;9.10;;;;;;10405136;28;20309;-78
2023/07/07 18:38:14;;;;;;;5.10;4.63;;;32.50;9.60;;;;;;10400627;28;20700;-78
2023/07/07 18:43:18;;;;;;;5.30;4.80;;;32.40;10.00;;;;;;10395393;28;20225;-78
2023/07/07 18:48:22;;;;;;;6.03;5.00;;;32.30;10.40;;;;;;10401313;28;20272;-78
2023/07/07 18:53:25;;;;;;;5.30;4.57;;;32.30;10.60;;;;;;10401857;28;20290;-78
2023/07/07 18:58:30;;;;;;;6.53;5.13;;;32.10;10.60;;;;;;10396661;28;20230;-77
2023/07/07 19:03:33;;;;;;;8.67;5.60;;;31.90;11.20;;;;;;10398804;28;20217;-79
2023/07/07 19:08:36;;;;;;;5.30;4.80;;;31.80;11.50;;;;;;10395587;28;20279;-77
2023/07/07 19:13:41;;;;;;;5.30;4.80;;;31.60;11.40;;;;;;10390680;28;20239;-78
2023/07/07 19:18:46;;;;;;;6.57;5.47;;;31.40;11.50;;;;;;10389236;28;20698;-78
2023/07/07 19:23:51;;;;;;;5.70;5.10;;;31.20;11.80;;;;;;10396206;28;20229;-78
2023/07/07 19:28:56;;;;;;;7.90;5.63;;;30.90;12.00;;;;;;10396433;28;20221;-78
2023/07/07 19:33:59;;;;;;;5.63;5.13;;;30.70;12.70;;;;;;10395989;28;20236;-78
2023/07/07 19:39:07;;;;;;;5.53;4.83;;;30.50;12.70;;;;;;10397602;28;20236;-78
2023/07/07 19:44:12;;;;;;;7.10;5.40;;;30.30;12.60;;;;;;10401331;28;20240;-78
2023/07/07 19:49:18;;;;;;;6.03;5.43;;;30.00;13.20;;;;;;10402226;28;20233;-77
2023/07/07 19:54:23;;;;;;;5.40;4.90;;;29.80;13.80;;;;;;10399371;28;20236;-78
2023/07/07 19:59:27;;;;;;;6.10;5.43;;;29.50;13.60;;;;;;10400840;28;20233;-77
2023/07/07 20:04:31;;;;;;;5.33;4.93;;;29.30;13.80;;;;;;10408870;28;20233;-77
2023/07/07 20:09:34;;;;;;;6.30;5.20;;;29.10;13.60;;;;;;10404742;28;20589;-78
2023/07/07 20:14:39;;;;;;;5.90;5.30;;;28.90;13.60;;;;;;10404232;28;20289;-77
2023/07/07 20:19:42;;;;;;;6.43;5.83;;;28.70;14.20;;;;;;10403647;28;20256;-77
2023/07/07 20:24:45;;;;;;;7.13;6.43;;;28.60;14.20;;;;;;10405198;28;20307;-76
2023/07/07 20:29:50;;;;;;;7.07;5.77;;;28.40;14.50;;;;;;10400149;28;20588;-77
2023/07/07 20:34:53;;;;;;;6.43;5.83;;;28.20;15.00;;;;;;10401897;28;20320;-77
2023/07/07 20:39:56;;;;;;;7.50;6.00;;;28.00;14.80;;;;;;10403996;28;20230;-77
2023/07/07 20:45:02;;;;;;;5.40;4.87;;;27.80;14.70;;;;;;10405975;28;20324;-76
2023/07/07 20:50:16;;;;;;;6.27;5.60;;;27.60;15.20;;;;;;10407349;28;20233;-77
2023/07/07 20:55:19;;;;;;;6.20;5.60;;;27.40;15.80;;;;;;10405946;28;20245;-77
2023/07/07 21:00:29;;;;;;;6.40;5.77;;;27.20;15.20;;;;;;10401366;28;20222;-77
2023/07/07 21:05:32;;;;;;;6.60;6.00;;;27.00;15.80;;;;;;10398988;28;20308;-76
2023/07/07 21:10:37;;;;;;;6.00;5.43;;;26.70;15.50;;;;;;10406080;28;20249;-77
2023/07/07 21:15:42;;;;;;;5.40;4.90;;;26.50;15.80;;;;;;10409455;28;20229;-76
2023/07/07 21:20:48;;;;;;;5.50;5.00;;;26.20;16.30;;;;;;10410769;28;20230;-76
2023/07/07 21:25:55;;;;;;;6.00;5.40;;;26.00;17.10;;;;;;10409143;28;20249;-75
2023/07/07 21:30:59;;;;;;;8.00;5.63;;;25.90;16.90;;;;;;10410428;28;20291;-77
2023/07/07 21:36:03;;;;;;;6.07;4.90;;;25.70;16.90;;;;;;10408021;28;20229;-75
2023/07/07 21:41:09;;;;;;;5.47;4.90;;;25.60;16.90;;;;;;10412451;28;20236;-76
2023/07/07 21:46:19;;;;;;;6.00;5.37;;;25.40;17.40;;;;;;10411067;28;20226;-76
2023/07/07 21:51:22;;;;;;;5.87;5.37;;;25.30;17.50;;;;;;10409451;28;21140;-76
2023/07/07 21:56:28;;;;;;;5.67;5.17;;;25.20;17.20;;;;;;10410095;28;20243;-76
2023/07/07 22:01:32;;;;;;;6.93;5.47;;;25.00;18.00;;;;;;10406839;28;20228;-76
2023/07/07 22:06:36;;;;;;;6.43;5.37;;;25.00;18.50;;;;;;10411799;28;20237;-76
2023/07/07 22:11:39;;;;;;;5.90;5.30;;;24.90;18.50;;;;;;10409079;28;20225;-76
2023/07/07 22:16:44;;;;;;;6.77;4.90;;;24.80;18.40;;;;;;10409265;28;20232;-76
2023/07/07 22:21:47;;;;;;;6.00;5.40;;;24.70;18.30;;;;;;10410150;28;20221;-76
2023/07/07 22:26:50;;;;;;;6.13;5.57;;;24.60;18.30;;;;;;10409015;28;20243;-76
2023/07/07 22:31:55;;;;;;;5.27;4.77;;;24.50;18.20;;;;;;10403493;28;20236;-76
2023/07/07 22:36:58;;;;;;;5.63;5.13;;;24.40;18.40;;;;;;10410390;28;20236;-77
2023/07/07 22:42:01;;;;;;;5.70;5.20;;;24.10;18.10;;;;;;10406967;28;20230;-76
2023/07/07 22:47:08;;;;;;;5.80;5.00;;;23.90;18.60;;;;;;10407262;28;20231;-77
2023/07/07 22:52:12;;;;;;;5.07;4.60;;;23.60;19.40;;;;;;10408943;28;20230;-76
2023/07/07 22:57:15;;;;;;;6.13;5.03;;;23.50;19.30;;;;;;10408116;28;20234;-76
2023/07/07 23:02:20;;;;;;;5.37;4.87;;;23.40;19.60;;;;;;10406433;28;20233;-75
2023/07/07 23:07:23;;;;;;;5.10;4.60;;;23.40;20.00;;;;;;10405550;28;20234;-75
2023/07/07 23:12:27;;;;;;;5.20;4.70;;;23.40;19.90;;;;;;10408126;28;20230;-76
2023/07/07 23:17:33;;;;;;;5.07;4.57;;;23.40;20.20;;;;;;10403578;28;20244;-76
2023/07/07 23:22:37;;;;;;;7.67;4.57;;;23.40;20.50;;;;;;10408402;28;20264;-75
2023/07/07 23:27:48;;;;;;;4.93;4.53;;;23.40;20.00;;;;;;10405238;28;20309;-76
2023/07/07 23:32:53;;;;;;;5.93;4.03;;;23.30;20.70;;;;;;10406740;28;20230;-75
2023/07/07 23:37:57;;;;;;;6.80;4.90;;;23.30;20.60;;;;;;10405408;28;20229;-75
2023/07/07 23:43:01;;;;;;;5.80;4.77;;;23.20;20.60;;;;;;10407654;28;20606;-76
2023/07/07 23:48:11;;;;;;;5.20;4.50;;;23.00;20.60;;;;;;10405547;28;20253;-75
2023/07/07 23:53:14;;;;;;;5.57;4.13;;;22.80;21.70;;;;;;10406317;28;20254;-76
2023/07/07 23:58:19;;;;;;;5.80;5.30;;;22.70;20.70;;;;;;10406003;28;20243;-75
